Florence, OR

6:05 PM PST on December 20, 2014 (GMT -0800)
Willow Dunes | Change Station
CLOSE
Current Station
Personal Weather Station
Location: Florence, OR
Elevation: 46 ft
Nearby Weather Stations

Elev 46 ft 43.99 °N, 124.09 °W | Updated 3 seconds ago

Rain
Rain
57.5 °F
Feels Like 57.5 °F
N
3.0
Wind Variable Wind from South
Gusts 19.0 mph

Today
High -- | Low -- °F
--% Chance of Precip.
Yesterday
High -- | Low -- °F
Precip. -- in
7:47 AM 4:40 PM
Waning Crescent, 1% visible
Pressure 29.74 in
Visibility 1.8 miles
Clouds Overcast 300 ft
Dew Point 57 °F
Humidity 97%
Rainfall 2.00 in
Snow Depth Not available.
UV 0.0 out of 12
Pollen .50 out of 12
Air Quality Not available.
Flu Activity Not available.
METAR KONP 210155Z AUTO 22020G30KT 1 3/4SM RA OVC003 13/13 A2974 RMK AO2 P0002

More Conditions Fewer Conditions

Pressure 29.74 in
Visibility 1.8 miles
Clouds Overcast 300 ft
Dew Point 57 °F
Humidity 97%
Rainfall 2.00 in
Snow Depth Not available.
UV 0.0 out of 12
Pollen .50 out of 12
Air Quality Not available.
Flu Activity Not available.
METAR KONP 210155Z AUTO 22020G30KT 1 3/4SM RA OVC003 13/13 A2974 RMK AO2 P0002

More Conditions Fewer Conditions

10-Day Weather Forecast

Almanac

Astronomy

Dec. 20, 2014 Rise Set
Actual Time
Civil Twilight
Nautical Twilight
Astronomical Twilight
Moon
Length of Visible Light
Length of Day
Tomorrow will be .
, % of the Moon is Illuminated

Today's Extremes

State Highs State Lows

Community

WunderPhotos

Upload Photos

1,779,346 photos uploaded!

WunderBlogs® & News

Nearby

Air Quality

  Air Quality AQ Index Pollutant
Not available.

Snow Depth

Station Depth Elevation

Earthquake Activity

City Distance Mag. Time & Date
Minimum magnitude displayed is 2.5.

Coastal Water Temperatures

Place Temperature

Nearby Weather Stations